Terminal Aerodrome Forecast
Issued by NWS

Current Version | Previous Version | Graphics & Text | Print | Product List | Glossary On
Versions: 1 2 3 4 5 6 7 8 9 10 11 12 13 14 15 16 17 18 19 20 21 22 23 24 25 26 27 28 29 30 31 32 33 34 35 36 37 38 39
000
FTUS41 KRNK 161720
TAFLWB
TAF
KLWB 161720Z 1618/1718 18005KT 6SM -RADZ OVC035
     FM162100 16006KT P6SM -SHRA SCT025 OVC040
      TEMPO 1622/1701 4SM SHRA OVC025
     FM170100 VRB03KT 6SM -SHRA BR OVC018
     FM170400 00000KT 3SM -DZ BR OVC008
     FM171600 24006KT P6SM BKN040=

USA.gov is the U.S. government's official web portal to all federal, state and local government web resources and services.